createdAt,value
2022-08-21T00:03:27.783Z,3.30
2022-08-21T00:13:30.525Z,3.22
2022-08-21T00:23:35.397Z,2.90
2022-08-21T00:33:38.119Z,3.28
2022-08-21T00:43:42.399Z,3.40
2022-08-21T00:53:51.721Z,2.88
2022-08-21T01:03:57.827Z,2.83
2022-08-21T01:14:00.944Z,3.60
2022-08-21T01:24:05.564Z,3.55
2022-08-21T01:34:09.438Z,4.18
2022-08-21T01:44:13.556Z,4.32
2022-08-21T01:54:16.297Z,3.95
2022-08-21T02:04:20.316Z,4.25
2022-08-21T02:14:32.852Z,4.05
2022-08-21T02:24:50.167Z,4.05
2022-08-21T02:34:57.588Z,3.90
2022-08-21T02:45:01.628Z,3.88
2022-08-21T02:55:04.738Z,3.72
2022-08-21T03:05:12.044Z,4.50
2022-08-21T03:15:18.188Z,4.53
2022-08-21T03:25:33.309Z,4.93
2022-08-21T03:35:45.056Z,5.53
2022-08-21T03:45:49.276Z,6.70
2022-08-21T03:55:53.440Z,6.20
2022-08-21T04:05:57.789Z,6.72
2022-08-21T04:16:00.493Z,6.85
2022-08-21T04:26:04.973Z,6.63
2022-08-21T04:36:08.798Z,6.50
2022-08-21T04:46:13.526Z,6.57
2022-08-21T04:56:22.347Z,6.47
2022-08-21T05:06:27.443Z,5.68
2022-08-21T05:16:37.355Z,6.35
2022-08-21T05:26:46.176Z,5.40
2022-08-21T05:36:49.500Z,5.68
2022-08-21T05:46:53.672Z,5.30
2022-08-21T05:56:56.395Z,6.05
2022-08-21T06:07:00.457Z,5.63
2022-08-21T06:17:06.605Z,5.95
2022-08-21T06:27:11.234Z,5.60
2022-08-21T06:37:13.918Z,5.95
2022-08-21T06:47:17.991Z,5.90
2022-08-21T06:57:20.693Z,5.07
2022-08-21T07:07:24.787Z,4.53
2022-08-21T07:17:27.472Z,4.65
2022-08-21T07:27:32.354Z,3.63
2022-08-21T07:37:35.177Z,3.30
2022-08-21T07:47:42.053Z,4.43
2022-08-21T07:57:45.745Z,2.85
2022-08-21T08:07:50.058Z,2.83
2022-08-21T08:17:53.253Z,2.45
2022-08-21T08:27:57.324Z,2.00
2022-08-21T08:38:00.802Z,1.88
2022-08-21T08:48:14.279Z,2.35
2022-08-21T08:58:22.096Z,1.60
2022-08-21T09:08:40.575Z,1.40
2022-08-21T09:18:55.946Z,2.00
2022-08-21T09:29:02.378Z,1.75
2022-08-21T09:39:05.543Z,1.50
2022-08-21T09:49:14.934Z,1.50
2022-08-21T09:59:22.811Z,1.77
2022-08-21T10:09:26.828Z,1.65
2022-08-21T10:19:37.919Z,1.63
2022-08-21T10:29:51.304Z,1.70
2022-08-21T10:40:04.497Z,2.05
2022-08-21T10:50:17.101Z,1.52
2022-08-21T11:00:23.004Z,1.65
2022-08-21T11:10:33.031Z,1.25
2022-08-21T11:20:43.931Z,1.30
2022-08-21T11:30:58.653Z,1.30
2022-08-21T11:41:09.095Z,1.08
2022-08-21T11:51:17.827Z,1.25
2022-08-21T12:01:24.247Z,1.38
2022-08-21T12:11:30.994Z,1.20
2022-08-21T12:21:34.747Z,1.30
2022-08-21T12:31:50.794Z,1.25
2022-08-21T12:42:01.987Z,1.25
2022-08-21T12:52:13.186Z,0.80
2022-08-21T13:02:20.782Z,0.98
2022-08-21T13:12:28.383Z,0.95
2022-08-21T13:22:41.932Z,1.08
2022-08-21T13:32:52.213Z,1.13
2022-08-21T13:42:55.773Z,1.05
2022-08-21T13:53:02.819Z,1.20
2022-08-21T14:03:10.023Z,1.10
2022-08-21T14:13:35.890Z,1.10
2022-08-21T14:23:41.031Z,1.15
2022-08-21T14:33:45.672Z,1.02
2022-08-21T14:43:59.805Z,1.02
2022-08-21T14:54:12.868Z,1.30
2022-08-21T15:04:15.646Z,1.80
2022-08-21T15:14:22.666Z,1.65
2022-08-21T15:24:25.612Z,1.77
2022-08-21T15:34:32.068Z,1.98
2022-08-21T15:44:34.941Z,2.05
2022-08-21T15:54:38.967Z,1.92
2022-08-21T16:04:41.734Z,1.60
2022-08-21T16:14:45.813Z,1.55
2022-08-21T16:24:48.550Z,1.60
2022-08-21T16:34:52.608Z,1.60
2022-08-21T16:44:57.285Z,1.70
2022-08-21T16:55:01.331Z,1.75
2022-08-21T17:05:06.515Z,1.63
2022-08-21T17:15:21.160Z,1.30
2022-08-21T17:25:24.986Z,2.60
2022-08-21T17:35:29.397Z,1.83
2022-08-21T17:45:32.146Z,1.95
2022-08-21T17:55:41.836Z,1.88
2022-08-21T18:05:46.756Z,1.65
2022-08-21T18:15:53.941Z,1.92
2022-08-21T18:25:58.928Z,1.75
2022-08-21T18:36:04.586Z,1.50
2022-08-21T18:46:07.545Z,1.90
2022-08-21T18:56:15.531Z,1.70
2022-08-21T19:06:19.005Z,1.50
2022-08-21T19:16:23.691Z,1.83
2022-08-21T19:26:28.980Z,1.70
2022-08-21T19:36:34.411Z,2.47
2022-08-21T19:46:40.340Z,2.17
2022-08-21T19:56:45.930Z,1.60
2022-08-21T20:06:50.421Z,1.80
2022-08-21T20:16:55.249Z,1.77
2022-08-21T20:26:58.521Z,1.70
2022-08-21T20:37:02.731Z,1.50
2022-08-21T20:47:09.445Z,1.80
2022-08-21T20:57:21.912Z,2.13
2022-08-21T21:07:28.925Z,2.20
2022-08-21T21:17:40.082Z,2.13
2022-08-21T21:27:49.236Z,2.40
2022-08-21T21:37:59.634Z,1.88
2022-08-21T21:48:13.358Z,1.92
2022-08-21T21:58:38.369Z,1.88
2022-08-21T22:08:48.872Z,2.08
2022-08-21T22:18:59.808Z,2.22
2022-08-21T22:29:05.782Z,2.20
2022-08-21T22:39:19.044Z,2.40
2022-08-21T22:49:33.512Z,2.30
2022-08-21T22:59:41.884Z,2.88
2022-08-21T23:09:48.557Z,2.55
2022-08-21T23:20:03.665Z,2.20
2022-08-21T23:30:10.602Z,2.97
2022-08-21T23:51:12.798Z,2.60
